sensor_id;sensor_type;location;lat;lon;timestamp;temperature;humidity
22532;DHT22;11432;46.924;7.114;2022-11-11T00:01:29;7.40;99.90
22532;DHT22;11432;46.924;7.114;2022-11-11T00:03:55;7.40;99.90
22532;DHT22;11432;46.924;7.114;2022-11-11T00:06:21;7.40;99.90
22532;DHT22;11432;46.924;7.114;2022-11-11T00:08:47;7.40;99.90
22532;DHT22;11432;46.924;7.114;2022-11-11T00:11:14;7.40;99.90
22532;DHT22;11432;46.924;7.114;2022-11-11T00:13:40;7.40;99.90
22532;DHT22;11432;46.924;7.114;2022-11-11T00:16:09;7.40;99.90
22532;DHT22;11432;46.924;7.114;2022-11-11T00:18:35;7.50;99.90
22532;DHT22;11432;46.924;7.114;2022-11-11T00:21:20;7.50;99.90
22532;DHT22;11432;46.924;7.114;2022-11-11T00:24:05;7.60;99.90
22532;DHT22;11432;46.924;7.114;2022-11-11T00:26:49;7.60;99.90
22532;DHT22;11432;46.924;7.114;2022-11-11T00:29:14;7.60;99.90
22532;DHT22;11432;46.924;7.114;2022-11-11T00:31:40;7.60;99.90
22532;DHT22;11432;46.924;7.114;2022-11-11T00:34:26;7.70;99.90
22532;DHT22;11432;46.924;7.114;2022-11-11T00:36:51;7.70;99.90
22532;DHT22;11432;46.924;7.114;2022-11-11T00:39:17;7.70;99.90
22532;DHT22;11432;46.924;7.114;2022-11-11T00:41:42;7.70;99.90
22532;DHT22;11432;46.924;7.114;2022-11-11T00:44:08;7.70;99.90
22532;DHT22;11432;46.924;7.114;2022-11-11T00:46:34;7.70;99.90
22532;DHT22;11432;46.924;7.114;2022-11-11T00:49:18;7.80;99.90
22532;DHT22;11432;46.924;7.114;2022-11-11T00:52:02;7.70;99.90
22532;DHT22;11432;46.924;7.114;2022-11-11T00:54:28;7.80;99.90
22532;DHT22;11432;46.924;7.114;2022-11-11T00:56:53;7.70;99.90
22532;DHT22;11432;46.924;7.114;2022-11-11T00:59:19;7.80;99.90
22532;DHT22;11432;46.924;7.114;2022-11-11T01:01:45;7.80;99.90
22532;DHT22;11432;46.924;7.114;2022-11-11T01:04:10;7.80;99.90
22532;DHT22;11432;46.924;7.114;2022-11-11T01:06:36;7.80;99.90
22532;DHT22;11432;46.924;7.114;2022-11-11T01:09:05;7.80;99.90
22532;DHT22;11432;46.924;7.114;2022-11-11T01:11:31;7.90;99.90
22532;DHT22;11432;46.924;7.114;2022-11-11T01:13:57;7.90;99.90
22532;DHT22;11432;46.924;7.114;2022-11-11T01:16:24;7.80;99.90
22532;DHT22;11432;46.924;7.114;2022-11-11T01:18:51;7.90;99.90
22532;DHT22;11432;46.924;7.114;2022-11-11T01:21:22;7.90;99.90
22532;DHT22;11432;46.924;7.114;2022-11-11T01:23:50;7.90;99.90
22532;DHT22;11432;46.924;7.114;2022-11-11T01:26:23;7.90;99.90
22532;DHT22;11432;46.924;7.114;2022-11-11T01:28:51;8.00;99.90
22532;DHT22;11432;46.924;7.114;2022-11-11T01:31:18;8.10;99.90
22532;DHT22;11432;46.924;7.114;2022-11-11T01:33:44;8.10;99.90
22532;DHT22;11432;46.924;7.114;2022-11-11T01:36:21;8.10;99.90
22532;DHT22;11432;46.924;7.114;2022-11-11T01:38:55;8.20;99.90
22532;DHT22;11432;46.924;7.114;2022-11-11T01:41:23;8.10;99.90
22532;DHT22;11432;46.924;7.114;2022-11-11T01:46:45;8.00;99.90
22532;DHT22;11432;46.924;7.114;2022-11-11T01:57:14;8.10;99.90
22532;DHT22;11432;46.924;7.114;2022-11-11T01:59:43;8.10;99.90
22532;DHT22;11432;46.924;7.114;2022-11-11T02:02:23;8.20;99.90
22532;DHT22;11432;46.924;7.114;2022-11-11T02:04:50;8.20;99.90
22532;DHT22;11432;46.924;7.114;2022-11-11T02:07:36;8.20;99.90
22532;DHT22;11432;46.924;7.114;2022-11-11T02:10:05;8.30;99.90
22532;DHT22;11432;46.924;7.114;2022-11-11T02:12:32;8.30;99.90
22532;DHT22;11432;46.924;7.114;2022-11-11T02:15:17;8.30;99.90
22532;DHT22;11432;46.924;7.114;2022-11-11T02:17:43;8.30;99.90
22532;DHT22;11432;46.924;7.114;2022-11-11T02:20:13;8.30;99.90
22532;DHT22;11432;46.924;7.114;2022-11-11T02:25:44;8.30;99.90
22532;DHT22;11432;46.924;7.114;2022-11-11T02:28:10;8.30;99.90
22532;DHT22;11432;46.924;7.114;2022-11-11T02:30:37;8.30;99.90
22532;DHT22;11432;46.924;7.114;2022-11-11T02:33:03;8.40;99.90
22532;DHT22;11432;46.924;7.114;2022-11-11T02:35:32;8.40;99.90
22532;DHT22;11432;46.924;7.114;2022-11-11T02:37:58;8.30;99.90
22532;DHT22;11432;46.924;7.114;2022-11-11T02:40:42;8.40;99.90
22532;DHT22;11432;46.924;7.114;2022-11-11T02:43:30;8.30;99.90
22532;DHT22;11432;46.924;7.114;2022-11-11T02:45:56;8.30;99.90
22532;DHT22;11432;46.924;7.114;2022-11-11T02:48:22;8.30;99.90
22532;DHT22;11432;46.924;7.114;2022-11-11T02:50:49;8.30;99.90
22532;DHT22;11432;46.924;7.114;2022-11-11T02:53:14;8.30;99.90
22532;DHT22;11432;46.924;7.114;2022-11-11T02:55:40;8.30;99.90
22532;DHT22;11432;46.924;7.114;2022-11-11T02:58:06;8.30;99.90
22532;DHT22;11432;46.924;7.114;2022-11-11T03:00:31;8.30;99.90
22532;DHT22;11432;46.924;7.114;2022-11-11T03:02:57;8.30;99.90
22532;DHT22;11432;46.924;7.114;2022-11-11T03:05:23;8.30;99.90
22532;DHT22;11432;46.924;7.114;2022-11-11T03:07:48;8.30;99.90
22532;DHT22;11432;46.924;7.114;2022-11-11T03:10:15;8.20;99.90
22532;DHT22;11432;46.924;7.114;2022-11-11T03:12:40;8.20;99.90
22532;DHT22;11432;46.924;7.114;2022-11-11T03:15:06;8.10;99.90
22532;DHT22;11432;46.924;7.114;2022-11-11T03:17:32;8.10;99.90
22532;DHT22;11432;46.924;7.114;2022-11-11T03:25:30;8.10;99.90
22532;DHT22;11432;46.924;7.114;2022-11-11T03:28:16;8.10;99.90
22532;DHT22;11432;46.924;7.114;2022-11-11T03:30:47;8.10;99.90
22532;DHT22;11432;46.924;7.114;2022-11-11T03:33:13;8.10;99.90
22532;DHT22;11432;46.924;7.114;2022-11-11T03:35:40;8.00;99.90
22532;DHT22;11432;46.924;7.114;2022-11-11T03:38:07;8.10;99.90
22532;DHT22;11432;46.924;7.114;2022-11-11T03:40:45;8.10;99.90
22532;DHT22;11432;46.924;7.114;2022-11-11T03:43:12;8.10;99.90
22532;DHT22;11432;46.924;7.114;2022-11-11T03:45:38;8.00;99.90
22532;DHT22;11432;46.924;7.114;2022-11-11T03:48:04;7.90;99.90
22532;DHT22;11432;46.924;7.114;2022-11-11T03:50:30;7.90;99.90
22532;DHT22;11432;46.924;7.114;2022-11-11T03:52:56;7.90;99.90
22532;DHT22;11432;46.924;7.114;2022-11-11T03:55:22;7.90;99.90
22532;DHT22;11432;46.924;7.114;2022-11-11T03:57:48;7.90;99.90
22532;DHT22;11432;46.924;7.114;2022-11-11T04:00:16;7.90;99.90
22532;DHT22;11432;46.924;7.114;2022-11-11T04:02:42;7.90;99.90
22532;DHT22;11432;46.924;7.114;2022-11-11T04:05:26;7.90;99.90
22532;DHT22;11432;46.924;7.114;2022-11-11T04:08:12;7.90;99.90
22532;DHT22;11432;46.924;7.114;2022-11-11T04:10:57;8.00;99.90
22532;DHT22;11432;46.924;7.114;2022-11-11T04:13:25;8.00;99.90
22532;DHT22;11432;46.924;7.114;2022-11-11T04:16:10;8.00;99.90
22532;DHT22;11432;46.924;7.114;2022-11-11T04:18:36;8.10;99.90
22532;DHT22;11432;46.924;7.114;2022-11-11T04:21:22;8.10;99.90
22532;DHT22;11432;46.924;7.114;2022-11-11T04:24:07;8.10;99.90
22532;DHT22;11432;46.924;7.114;2022-11-11T04:26:53;8.10;99.90
22532;DHT22;11432;46.924;7.114;2022-11-11T04:29:20;8.10;99.90
22532;DHT22;11432;46.924;7.114;2022-11-11T04:32:07;8.10;99.90
22532;DHT22;11432;46.924;7.114;2022-11-11T04:34:56;8.20;99.90
22532;DHT22;11432;46.924;7.114;2022-11-11T04:37:23;8.20;99.90
22532;DHT22;11432;46.924;7.114;2022-11-11T04:39:49;8.10;99.90
22532;DHT22;11432;46.924;7.114;2022-11-11T04:42:33;8.00;99.90
22532;DHT22;11432;46.924;7.114;2022-11-11T04:45:00;8.00;99.90
22532;DHT22;11432;46.924;7.114;2022-11-11T04:48:06;8.00;99.90
22532;DHT22;11432;46.924;7.114;2022-11-11T04:50:36;8.00;99.90
22532;DHT22;11432;46.924;7.114;2022-11-11T04:53:04;8.00;99.90
22532;DHT22;11432;46.924;7.114;2022-11-11T04:55:29;8.10;99.90
22532;DHT22;11432;46.924;7.114;2022-11-11T04:58:15;8.10;99.90
22532;DHT22;11432;46.924;7.114;2022-11-11T05:00:41;8.10;99.90
22532;DHT22;11432;46.924;7.114;2022-11-11T05:03:10;8.20;99.90
22532;DHT22;11432;46.924;7.114;2022-11-11T05:08:32;8.20;99.90
22532;DHT22;11432;46.924;7.114;2022-11-11T05:11:17;8.20;99.90
22532;DHT22;11432;46.924;7.114;2022-11-11T05:13:43;8.20;99.90
22532;DHT22;11432;46.924;7.114;2022-11-11T05:16:29;8.10;99.90
22532;DHT22;11432;46.924;7.114;2022-11-11T05:19:15;8.10;99.90
22532;DHT22;11432;46.924;7.114;2022-11-11T05:24:39;8.00;99.90
22532;DHT22;11432;46.924;7.114;2022-11-11T05:27:24;8.10;99.90
22532;DHT22;11432;46.924;7.114;2022-11-11T05:29:51;8.00;99.90
22532;DHT22;11432;46.924;7.114;2022-11-11T05:32:21;8.00;99.90
22532;DHT22;11432;46.924;7.114;2022-11-11T05:34:47;8.00;99.90
22532;DHT22;11432;46.924;7.114;2022-11-11T05:37:14;8.00;99.90
22532;DHT22;11432;46.924;7.114;2022-11-11T05:39:40;8.10;99.90
22532;DHT22;11432;46.924;7.114;2022-11-11T05:42:06;8.10;99.90
22532;DHT22;11432;46.924;7.114;2022-11-11T05:44:32;8.10;99.90
22532;DHT22;11432;46.924;7.114;2022-11-11T05:46:57;8.10;99.90
22532;DHT22;11432;46.924;7.114;2022-11-11T05:49:23;8.10;99.90
22532;DHT22;11432;46.924;7.114;2022-11-11T05:51:50;8.10;99.90
22532;DHT22;11432;46.924;7.114;2022-11-11T05:54:16;8.20;99.90
22532;DHT22;11432;46.924;7.114;2022-11-11T05:56:42;8.10;99.90
22532;DHT22;11432;46.924;7.114;2022-11-11T05:59:08;8.20;99.90
22532;DHT22;11432;46.924;7.114;2022-11-11T06:01:34;8.10;99.90
22532;DHT22;11432;46.924;7.114;2022-11-11T06:03:59;8.20;99.90
22532;DHT22;11432;46.924;7.114;2022-11-11T06:06:25;8.10;99.90
22532;DHT22;11432;46.924;7.114;2022-11-11T06:08:51;8.10;99.90
22532;DHT22;11432;46.924;7.114;2022-11-11T06:11:17;8.00;99.90
22532;DHT22;11432;46.924;7.114;2022-11-11T06:13:43;8.00;99.90
22532;DHT22;11432;46.924;7.114;2022-11-11T06:16:08;8.00;99.90
22532;DHT22;11432;46.924;7.114;2022-11-11T06:18:34;8.00;99.90
22532;DHT22;11432;46.924;7.114;2022-11-11T06:21:00;8.00;99.90
22532;DHT22;11432;46.924;7.114;2022-11-11T06:23:27;8.00;99.90
22532;DHT22;11432;46.924;7.114;2022-11-11T06:25:54;8.10;99.90
22532;DHT22;11432;46.924;7.114;2022-11-11T06:28:46;8.10;99.90
22532;DHT22;11432;46.924;7.114;2022-11-11T06:31:19;8.00;99.90
22532;DHT22;11432;46.924;7.114;2022-11-11T06:33:45;8.00;99.90
22532;DHT22;11432;46.924;7.114;2022-11-11T06:36:12;8.00;99.90
22532;DHT22;11432;46.924;7.114;2022-11-11T06:38:39;8.00;99.90
22532;DHT22;11432;46.924;7.114;2022-11-11T06:41:05;8.00;99.90
22532;DHT22;11432;46.924;7.114;2022-11-11T06:43:31;8.00;99.90
22532;DHT22;11432;46.924;7.114;2022-11-11T06:45:57;8.10;99.90
22532;DHT22;11432;46.924;7.114;2022-11-11T06:48:25;8.10;99.90
22532;DHT22;11432;46.924;7.114;2022-11-11T06:52:20;8.00;99.90
22532;DHT22;11432;46.924;7.114;2022-11-11T06:54:46;8.20;99.90
22532;DHT22;11432;46.924;7.114;2022-11-11T06:57:11;8.20;99.90
22532;DHT22;11432;46.924;7.114;2022-11-11T07:01:16;9.50;99.90
22532;DHT22;11432;46.924;7.114;2022-11-11T07:03:41;8.10;99.90
22532;DHT22;11432;46.924;7.114;2022-11-11T07:06:07;8.20;99.90
22532;DHT22;11432;46.924;7.114;2022-11-11T07:08:33;8.10;99.90
22532;DHT22;11432;46.924;7.114;2022-11-11T07:10:58;8.10;99.90
22532;DHT22;11432;46.924;7.114;2022-11-11T07:13:24;8.30;99.90
22532;DHT22;11432;46.924;7.114;2022-11-11T07:15:50;8.30;99.90
22532;DHT22;11432;46.924;7.114;2022-11-11T07:18:15;8.40;99.90
22532;DHT22;11432;46.924;7.114;2022-11-11T07:20:41;8.40;99.90
22532;DHT22;11432;46.924;7.114;2022-11-11T07:23:07;8.60;99.90
22532;DHT22;11432;46.924;7.114;2022-11-11T07:25:33;8.60;99.90
22532;DHT22;11432;46.924;7.114;2022-11-11T07:27:59;8.70;99.90
22532;DHT22;11432;46.924;7.114;2022-11-11T07:30:25;8.70;99.90
22532;DHT22;11432;46.924;7.114;2022-11-11T07:32:52;8.70;99.90
22532;DHT22;11432;46.924;7.114;2022-11-11T07:35:19;8.90;99.90
22532;DHT22;11432;46.924;7.114;2022-11-11T07:37:45;9.30;99.90
22532;DHT22;11432;46.924;7.114;2022-11-11T07:40:13;11.40;99.90
22532;DHT22;11432;46.924;7.114;2022-11-11T07:42:40;12.70;99.90
22532;DHT22;11432;46.924;7.114;2022-11-11T07:45:07;11.80;99.90
22532;DHT22;11432;46.924;7.114;2022-11-11T07:47:33;11.10;99.90
22532;DHT22;11432;46.924;7.114;2022-11-11T07:50:00;10.50;99.90
22532;DHT22;11432;46.924;7.114;2022-11-11T07:52:26;10.10;99.90
22532;DHT22;11432;46.924;7.114;2022-11-11T07:54:51;9.90;99.90
22532;DHT22;11432;46.924;7.114;2022-11-11T07:57:17;9.70;99.90
22532;DHT22;11432;46.924;7.114;2022-11-11T07:59:43;9.50;99.90
22532;DHT22;11432;46.924;7.114;2022-11-11T08:02:09;9.50;99.90
22532;DHT22;11432;46.924;7.114;2022-11-11T08:04:35;9.40;99.90
22532;DHT22;11432;46.924;7.114;2022-11-11T08:07:01;9.20;99.90
22532;DHT22;11432;46.924;7.114;2022-11-11T08:09:26;9.00;99.90
22532;DHT22;11432;46.924;7.114;2022-11-11T08:11:52;8.90;99.90
22532;DHT22;11432;46.924;7.114;2022-11-11T08:14:36;8.90;99.90
22532;DHT22;11432;46.924;7.114;2022-11-11T08:17:01;9.00;99.90
22532;DHT22;11432;46.924;7.114;2022-11-11T08:19:27;8.90;99.90
22532;DHT22;11432;46.924;7.114;2022-11-11T08:21:52;8.90;99.90
22532;DHT22;11432;46.924;7.114;2022-11-11T08:24:18;8.90;99.90
22532;DHT22;11432;46.924;7.114;2022-11-11T08:26:44;9.00;99.90
22532;DHT22;11432;46.924;7.114;2022-11-11T08:29:10;9.10;99.90
22532;DHT22;11432;46.924;7.114;2022-11-11T08:31:35;9.20;99.90
22532;DHT22;11432;46.924;7.114;2022-11-11T08:34:03;9.20;99.90
22532;DHT22;11432;46.924;7.114;2022-11-11T08:36:29;9.20;99.90
22532;DHT22;11432;46.924;7.114;2022-11-11T08:38:55;9.40;99.90
22532;DHT22;11432;46.924;7.114;2022-11-11T08:41:20;9.40;99.90
22532;DHT22;11432;46.924;7.114;2022-11-11T08:43:51;9.50;99.90
22532;DHT22;11432;46.924;7.114;2022-11-11T08:46:17;9.70;99.90
22532;DHT22;11432;46.924;7.114;2022-11-11T08:48:42;9.70;99.90
22532;DHT22;11432;46.924;7.114;2022-11-11T08:51:08;9.70;99.90
22532;DHT22;11432;46.924;7.114;2022-11-11T08:53:33;9.70;99.90
22532;DHT22;11432;46.924;7.114;2022-11-11T08:56:01;9.70;99.90
22532;DHT22;11432;46.924;7.114;2022-11-11T08:58:27;9.80;99.90
22532;DHT22;11432;46.924;7.114;2022-11-11T09:00:53;9.90;99.90
22532;DHT22;11432;46.924;7.114;2022-11-11T09:03:18;9.90;99.90
22532;DHT22;11432;46.924;7.114;2022-11-11T09:05:44;9.90;99.90
22532;DHT22;11432;46.924;7.114;2022-11-11T09:08:12;10.00;99.90
22532;DHT22;11432;46.924;7.114;2022-11-11T09:10:38;9.90;99.90
22532;DHT22;11432;46.924;7.114;2022-11-11T09:13:04;10.00;99.90
22532;DHT22;11432;46.924;7.114;2022-11-11T09:15:30;10.00;99.90
22532;DHT22;11432;46.924;7.114;2022-11-11T09:17:55;10.10;99.90
22532;DHT22;11432;46.924;7.114;2022-11-11T09:20:22;10.20;99.90
22532;DHT22;11432;46.924;7.114;2022-11-11T09:22:48;10.30;99.90
22532;DHT22;11432;46.924;7.114;2022-11-11T09:25:14;10.40;99.90
22532;DHT22;11432;46.924;7.114;2022-11-11T09:27:41;10.40;99.90
22532;DHT22;11432;46.924;7.114;2022-11-11T09:30:08;10.50;99.90
22532;DHT22;11432;46.924;7.114;2022-11-11T09:32:34;10.60;99.90
22532;DHT22;11432;46.924;7.114;2022-11-11T09:35:01;10.70;99.90
22532;DHT22;11432;46.924;7.114;2022-11-11T09:37:27;10.70;99.90
22532;DHT22;11432;46.924;7.114;2022-11-11T09:39:52;10.80;99.90
22532;DHT22;11432;46.924;7.114;2022-11-11T09:42:47;10.80;99.90
22532;DHT22;11432;46.924;7.114;2022-11-11T09:45:28;10.90;99.90
22532;DHT22;11432;46.924;7.114;2022-11-11T09:50:55;11.20;99.90
22532;DHT22;11432;46.924;7.114;2022-11-11T09:53:32;11.40;99.90
22532;DHT22;11432;46.924;7.114;2022-11-11T09:56:05;11.50;99.90
22532;DHT22;11432;46.924;7.114;2022-11-11T09:58:56;11.70;99.90
22532;DHT22;11432;46.924;7.114;2022-11-11T10:01:25;11.90;99.90
22532;DHT22;11432;46.924;7.114;2022-11-11T10:06:39;11.90;99.90
22532;DHT22;11432;46.924;7.114;2022-11-11T10:09:18;12.00;99.90
22532;DHT22;11432;46.924;7.114;2022-11-11T10:12:12;12.10;99.90
22532;DHT22;11432;46.924;7.114;2022-11-11T10:14:41;12.20;99.90
22532;DHT22;11432;46.924;7.114;2022-11-11T10:17:30;12.40;99.90
22532;DHT22;11432;46.924;7.114;2022-11-11T10:20:11;12.10;1.00
22532;DHT22;11432;46.924;7.114;2022-11-11T10:22:41;11.90;1.00
22532;DHT22;11432;46.924;7.114;2022-11-11T10:25:18;11.70;1.00
22532;DHT22;11432;46.924;7.114;2022-11-11T10:27:47;11.50;1.00
22532;DHT22;11432;46.924;7.114;2022-11-11T10:30:21;11.50;1.00
22532;DHT22;11432;46.924;7.114;2022-11-11T10:33:15;11.50;1.00
22532;DHT22;11432;46.924;7.114;2022-11-11T10:35:43;11.60;1.00
22532;DHT22;11432;46.924;7.114;2022-11-11T10:40:48;11.50;1.00
22532;DHT22;11432;46.924;7.114;2022-11-11T10:51:24;13.50;39.60
22532;DHT22;11432;46.924;7.114;2022-11-11T10:54:12;14.80;41.50
22532;DHT22;11432;46.924;7.114;2022-11-11T10:56:45;16.00;39.90
22532;DHT22;11432;46.924;7.114;2022-11-11T10:59:22;15.90;34.40
22532;DHT22;11432;46.924;7.114;2022-11-11T11:04:34;15.90;41.40
22532;DHT22;11432;46.924;7.114;2022-11-11T11:07:03;17.10;45.70
22532;DHT22;11432;46.924;7.114;2022-11-11T11:09:48;18.20;52.00
22532;DHT22;11432;46.924;7.114;2022-11-11T11:12:37;17.50;43.80
22532;DHT22;11432;46.924;7.114;2022-11-11T11:15:09;17.10;44.70
22532;DHT22;11432;46.924;7.114;2022-11-11T11:17:44;17.40;39.20
22532;DHT22;11432;46.924;7.114;2022-11-11T11:20:17;17.70;38.90
22532;DHT22;11432;46.924;7.114;2022-11-11T11:22:53;18.00;37.60
22532;DHT22;11432;46.924;7.114;2022-11-11T11:25:22;15.80;29.20
22532;DHT22;11432;46.924;7.114;2022-11-11T11:27:49;16.30;24.40
22532;DHT22;11432;46.924;7.114;2022-11-11T11:30:23;17.10;22.00
22532;DHT22;11432;46.924;7.114;2022-11-11T11:33:04;17.60;23.90
22532;DHT22;11432;46.924;7.114;2022-11-11T11:38:00;17.10;25.40
22532;DHT22;11432;46.924;7.114;2022-11-11T11:40:26;17.10;26.00
22532;DHT22;11432;46.924;7.114;2022-11-11T11:42:55;17.20;25.70
22532;DHT22;11432;46.924;7.114;2022-11-11T11:45:25;17.10;23.20
22532;DHT22;11432;46.924;7.114;2022-11-11T11:50:51;17.20;20.90
22532;DHT22;11432;46.924;7.114;2022-11-11T11:59:20;17.30;15.40
22532;DHT22;11432;46.924;7.114;2022-11-11T12:30:19;16.00;1.00
22532;DHT22;11432;46.924;7.114;2022-11-11T12:36:18;15.40;1.00
22532;DHT22;11432;46.924;7.114;2022-11-11T12:47:34;15.40;1.00
22532;DHT22;11432;46.924;7.114;2022-11-11T12:53:06;15.00;1.00
22532;DHT22;11432;46.924;7.114;2022-11-11T12:58:43;14.90;1.00
22532;DHT22;11432;46.924;7.114;2022-11-11T13:15:03;14.60;1.00
22532;DHT22;11432;46.924;7.114;2022-11-11T13:17:35;14.60;1.00
22532;DHT22;11432;46.924;7.114;2022-11-11T13:22:31;15.00;1.00
22532;DHT22;11432;46.924;7.114;2022-11-11T13:24:59;14.90;1.00
22532;DHT22;11432;46.924;7.114;2022-11-11T13:27:39;14.80;1.00
22532;DHT22;11432;46.924;7.114;2022-11-11T13:35:57;14.80;1.00
22532;DHT22;11432;46.924;7.114;2022-11-11T13:38:25;14.70;1.00
22532;DHT22;11432;46.924;7.114;2022-11-11T13:40:53;14.50;1.00
22532;DHT22;11432;46.924;7.114;2022-11-11T13:43:33;14.40;1.00
22532;DHT22;11432;46.924;7.114;2022-11-11T13:46:02;14.40;1.00
22532;DHT22;11432;46.924;7.114;2022-11-11T13:48:42;14.30;1.00
22532;DHT22;11432;46.924;7.114;2022-11-11T13:53:38;14.20;1.00
22532;DHT22;11432;46.924;7.114;2022-11-11T13:56:04;14.20;1.00
22532;DHT22;11432;46.924;7.114;2022-11-11T13:58:37;14.20;1.00
22532;DHT22;11432;46.924;7.114;2022-11-11T14:01:06;14.00;1.00
22532;DHT22;11432;46.924;7.114;2022-11-11T14:11:33;13.60;1.00
22532;DHT22;11432;46.924;7.114;2022-11-11T14:17:00;13.50;1.00
22532;DHT22;11432;46.924;7.114;2022-11-11T14:19:29;13.40;1.00
22532;DHT22;11432;46.924;7.114;2022-11-11T14:22:02;13.50;1.00
22532;DHT22;11432;46.924;7.114;2022-11-11T14:24:43;13.60;1.00
22532;DHT22;11432;46.924;7.114;2022-11-11T14:29:49;13.70;1.00
22532;DHT22;11432;46.924;7.114;2022-11-11T14:32:53;13.70;1.00
22532;DHT22;11432;46.924;7.114;2022-11-11T14:40:43;13.60;1.00
22532;DHT22;11432;46.924;7.114;2022-11-11T14:46:08;13.50;1.00
22532;DHT22;11432;46.924;7.114;2022-11-11T14:51:40;13.40;1.00
22532;DHT22;11432;46.924;7.114;2022-11-11T14:54:24;13.30;1.00
22532;DHT22;11432;46.924;7.114;2022-11-11T14:56:56;13.20;1.00
22532;DHT22;11432;46.924;7.114;2022-11-11T14:59:24;13.20;1.00
22532;DHT22;11432;46.924;7.114;2022-11-11T15:01:53;13.20;1.00
22532;DHT22;11432;46.924;7.114;2022-11-11T15:04:19;13.20;1.00
22532;DHT22;11432;46.924;7.114;2022-11-11T15:06:50;13.10;1.00
22532;DHT22;11432;46.924;7.114;2022-11-11T15:09:31;13.00;1.00
22532;DHT22;11432;46.924;7.114;2022-11-11T15:23:11;12.70;1.00
22532;DHT22;11432;46.924;7.114;2022-11-11T15:29:22;12.50;1.00
22532;DHT22;11432;46.924;7.114;2022-11-11T15:32:07;12.40;1.00
22532;DHT22;11432;46.924;7.114;2022-11-11T15:35:07;12.30;1.00
22532;DHT22;11432;46.924;7.114;2022-11-11T15:37:33;12.30;1.00
22532;DHT22;11432;46.924;7.114;2022-11-11T15:40:01;12.10;1.00
22532;DHT22;11432;46.924;7.114;2022-11-11T15:42:39;12.10;1.00
22532;DHT22;11432;46.924;7.114;2022-11-11T15:47:46;12.00;1.00
22532;DHT22;11432;46.924;7.114;2022-11-11T15:50:36;11.90;1.00
22532;DHT22;11432;46.924;7.114;2022-11-11T15:53:02;11.80;1.00
22532;DHT22;11432;46.924;7.114;2022-11-11T15:55:35;11.80;13.40
22532;DHT22;11432;46.924;7.114;2022-11-11T15:58:31;11.70;21.40
22532;DHT22;11432;46.924;7.114;2022-11-11T16:00:59;11.60;39.70
22532;DHT22;11432;46.924;7.114;2022-11-11T16:03:41;11.50;63.30
22532;DHT22;11432;46.924;7.114;2022-11-11T16:06:11;11.50;61.80
22532;DHT22;11432;46.924;7.114;2022-11-11T16:08:42;11.40;99.90
22532;DHT22;11432;46.924;7.114;2022-11-11T16:11:12;11.40;99.90
22532;DHT22;11432;46.924;7.114;2022-11-11T16:13:59;11.40;99.90
22532;DHT22;11432;46.924;7.114;2022-11-11T16:16:29;11.30;99.90
22532;DHT22;11432;46.924;7.114;2022-11-11T16:22:31;11.10;99.90
22532;DHT22;11432;46.924;7.114;2022-11-11T16:24:59;11.10;99.90
22532;DHT22;11432;46.924;7.114;2022-11-11T16:27:31;11.00;99.90
22532;DHT22;11432;46.924;7.114;2022-11-11T16:30:17;11.00;99.90
22532;DHT22;11432;46.924;7.114;2022-11-11T16:32:43;10.90;99.90
22532;DHT22;11432;46.924;7.114;2022-11-11T16:37:53;10.70;99.90
22532;DHT22;11432;46.924;7.114;2022-11-11T16:42:50;10.60;99.90
22532;DHT22;11432;46.924;7.114;2022-11-11T16:45:21;10.60;99.90
22532;DHT22;11432;46.924;7.114;2022-11-11T16:47:48;10.50;99.90
22532;DHT22;11432;46.924;7.114;2022-11-11T16:50:27;10.50;99.90
22532;DHT22;11432;46.924;7.114;2022-11-11T16:53:00;10.50;99.90
22532;DHT22;11432;46.924;7.114;2022-11-11T16:55:31;10.40;99.90
22532;DHT22;11432;46.924;7.114;2022-11-11T17:00:37;10.40;99.90
22532;DHT22;11432;46.924;7.114;2022-11-11T17:03:09;10.30;99.90
22532;DHT22;11432;46.924;7.114;2022-11-11T17:05:55;10.30;99.90
22532;DHT22;11432;46.924;7.114;2022-11-11T17:08:37;10.20;99.90
22532;DHT22;11432;46.924;7.114;2022-11-11T17:11:05;10.20;99.90
22532;DHT22;11432;46.924;7.114;2022-11-11T17:13:32;10.10;99.90
22532;DHT22;11432;46.924;7.114;2022-11-11T17:16:01;10.00;99.90
22532;DHT22;11432;46.924;7.114;2022-11-11T17:18:33;9.90;99.90
22532;DHT22;11432;46.924;7.114;2022-11-11T17:21:00;9.90;99.90
22532;DHT22;11432;46.924;7.114;2022-11-11T17:23:26;9.90;99.90
22532;DHT22;11432;46.924;7.114;2022-11-11T17:25:58;9.80;99.90
22532;DHT22;11432;46.924;7.114;2022-11-11T17:28:26;9.80;99.90
22532;DHT22;11432;46.924;7.114;2022-11-11T17:30:52;9.70;99.90
22532;DHT22;11432;46.924;7.114;2022-11-11T17:33:17;9.70;99.90
22532;DHT22;11432;46.924;7.114;2022-11-11T17:35:53;9.70;99.90
22532;DHT22;11432;46.924;7.114;2022-11-11T17:38:19;9.60;99.90
22532;DHT22;11432;46.924;7.114;2022-11-11T17:40:48;9.50;99.90
22532;DHT22;11432;46.924;7.114;2022-11-11T17:43:14;9.50;99.90
22532;DHT22;11432;46.924;7.114;2022-11-11T17:45:40;9.40;99.90
22532;DHT22;11432;46.924;7.114;2022-11-11T17:48:07;9.40;99.90
22532;DHT22;11432;46.924;7.114;2022-11-11T17:50:35;9.40;99.90
22532;DHT22;11432;46.924;7.114;2022-11-11T17:53:01;9.40;99.90
22532;DHT22;11432;46.924;7.114;2022-11-11T17:55:27;9.30;99.90
22532;DHT22;11432;46.924;7.114;2022-11-11T17:57:53;9.20;99.90
22532;DHT22;11432;46.924;7.114;2022-11-11T18:00:18;9.20;99.90
22532;DHT22;11432;46.924;7.114;2022-11-11T18:02:44;9.10;99.90
22532;DHT22;11432;46.924;7.114;2022-11-11T18:05:09;9.10;99.90
22532;DHT22;11432;46.924;7.114;2022-11-11T18:07:35;9.00;99.90
22532;DHT22;11432;46.924;7.114;2022-11-11T18:10:01;9.00;99.90
22532;DHT22;11432;46.924;7.114;2022-11-11T18:12:27;9.00;99.90
22532;DHT22;11432;46.924;7.114;2022-11-11T18:14:54;8.90;99.90
22532;DHT22;11432;46.924;7.114;2022-11-11T18:17:19;8.90;99.90
22532;DHT22;11432;46.924;7.114;2022-11-11T18:19:45;8.80;99.90
22532;DHT22;11432;46.924;7.114;2022-11-11T18:22:11;8.90;99.90
22532;DHT22;11432;46.924;7.114;2022-11-11T18:24:36;8.80;99.90
22532;DHT22;11432;46.924;7.114;2022-11-11T18:27:02;8.70;99.90
22532;DHT22;11432;46.924;7.114;2022-11-11T18:29:28;8.70;99.90
22532;DHT22;11432;46.924;7.114;2022-11-11T18:31:55;8.70;99.90
22532;DHT22;11432;46.924;7.114;2022-11-11T18:34:21;8.50;99.90
22532;DHT22;11432;46.924;7.114;2022-11-11T18:36:46;8.60;99.90
22532;DHT22;11432;46.924;7.114;2022-11-11T18:39:12;8.50;99.90
22532;DHT22;11432;46.924;7.114;2022-11-11T18:41:38;8.40;99.90
22532;DHT22;11432;46.924;7.114;2022-11-11T18:44:03;8.40;99.90
22532;DHT22;11432;46.924;7.114;2022-11-11T18:46:29;8.40;99.90
22532;DHT22;11432;46.924;7.114;2022-11-11T18:48:57;8.40;99.90
22532;DHT22;11432;46.924;7.114;2022-11-11T18:51:23;8.30;99.90
22532;DHT22;11432;46.924;7.114;2022-11-11T18:53:49;8.30;99.90
22532;DHT22;11432;46.924;7.114;2022-11-11T18:56:20;8.30;99.90
22532;DHT22;11432;46.924;7.114;2022-11-11T18:58:53;8.30;99.90
22532;DHT22;11432;46.924;7.114;2022-11-11T19:01:22;8.30;99.90
22532;DHT22;11432;46.924;7.114;2022-11-11T19:03:54;8.20;99.90
22532;DHT22;11432;46.924;7.114;2022-11-11T19:06:20;8.10;99.90